Time;durP1;ratioP1;P1;durP2;ratioP2;P2;SDS_P1;SDS_P2;PMS_P1;PMS_P2;Temp;Humidity;BMP_temperature;BMP_pressure;BME280_temperature;BME280_humidity;BME280_pressure;Samples;Min_cycle;Max_cycle;Signal;HPM_P1;HPM_P2
2020/12/25 00:01:56;;;;;;;3.20;3.00;;;;;;;1.92;100.00;97512.19;5016586;28;20330;-69
2020/12/25 00:04:23;;;;;;;2.90;2.80;;;;;;;1.95;100.00;97504.09;5023782;28;20680;-70
2020/12/25 00:06:50;;;;;;;2.70;2.50;;;;;;;1.95;100.00;97511.94;5019609;28;20583;-70
2020/12/25 00:09:17;;;;;;;2.90;2.70;;;;;;;1.96;100.00;97513.59;5023780;28;20223;-70
2020/12/25 00:11:44;;;;;;;2.90;2.80;;;;;;;1.91;100.00;97517.56;5015824;28;20208;-71
2020/12/25 00:14:11;;;;;;;2.90;2.70;;;;;;;2.03;100.00;97511.34;5015485;28;20481;-71
2020/12/25 00:16:38;;;;;;;2.80;2.70;;;;;;;2.04;100.00;97518.22;5015631;28;20257;-68
2020/12/25 00:19:06;;;;;;;2.97;2.77;;;;;;;2.00;100.00;97512.41;5022765;28;20227;-71
2020/12/25 00:21:33;;;;;;;3.17;2.87;;;;;;;2.00;100.00;97519.44;5020209;28;20228;-69
2020/12/25 00:24:00;;;;;;;2.73;2.63;;;;;;;1.97;100.00;97525.72;5017321;28;20224;-70
2020/12/25 00:26:28;;;;;;;3.23;2.93;;;;;;;2.00;100.00;97525.47;5023087;28;20227;-70
2020/12/25 00:28:56;;;;;;;3.17;2.87;;;;;;;1.87;100.00;97522.19;5016336;28;20232;-71
2020/12/25 00:31:25;;;;;;;3.00;2.80;;;;;;;1.85;100.00;97535.34;5008345;28;20244;-70
2020/12/25 00:33:54;;;;;;;3.50;3.30;;;;;;;1.88;100.00;97532.50;5012984;28;20459;-71
2020/12/25 00:36:26;;;;;;;3.00;2.77;;;;;;;1.88;100.00;97539.50;5015752;28;20219;-70
2020/12/25 00:38:55;;;;;;;2.90;2.80;;;;;;;1.78;100.00;97541.19;5015515;28;20232;-70
2020/12/25 00:41:22;;;;;;;2.77;2.67;;;;;;;1.73;100.00;97549.38;5022496;28;20235;-70
2020/12/25 00:43:49;;;;;;;3.50;3.03;;;;;;;1.66;100.00;97549.00;5017001;28;20213;-70
2020/12/25 00:46:16;;;;;;;3.03;2.83;;;;;;;1.66;100.00;97542.97;5017183;28;20211;-69
2020/12/25 00:48:44;;;;;;;3.03;2.87;;;;;;;1.62;100.00;97558.03;5013794;28;20352;-69
2020/12/25 00:51:16;;;;;;;3.63;2.93;;;;;;;1.59;100.00;97563.50;5020028;28;20212;-70
2020/12/25 00:53:44;;;;;;;3.20;3.00;;;;;;;1.56;100.00;97569.81;5012628;28;20235;-71
2020/12/25 00:56:12;;;;;;;2.77;2.63;;;;;;;1.54;100.00;97570.84;5008740;28;20208;-70
2020/12/25 00:58:40;;;;;;;3.30;3.10;;;;;;;1.55;100.00;97575.13;5008525;28;20224;-68
2020/12/25 01:01:09;;;;;;;3.43;3.23;;;;;;;1.52;100.00;97577.97;5015228;28;20320;-69
2020/12/25 01:03:37;;;;;;;3.33;3.13;;;;;;;1.43;100.00;97580.34;5014172;28;20369;-69
2020/12/25 01:06:08;;;;;;;3.23;3.10;;;;;;;1.38;100.00;97581.63;5017404;28;20200;-70
2020/12/25 01:08:35;;;;;;;3.30;3.10;;;;;;;1.33;100.00;97589.00;5014315;28;20310;-70
2020/12/25 01:11:03;;;;;;;4.00;3.80;;;;;;;1.30;100.00;97597.88;5015498;28;20204;-70
2020/12/25 01:13:31;;;;;;;3.87;3.57;;;;;;;1.35;100.00;97594.94;5013146;28;20692;-70
2020/12/25 01:16:02;;;;;;;3.70;3.50;;;;;;;1.28;100.00;97595.41;5014786;28;20209;-71
2020/12/25 01:18:29;;;;;;;3.97;3.77;;;;;;;1.31;100.00;97602.16;5019836;28;20233;-70
2020/12/25 01:20:56;;;;;;;4.10;3.87;;;;;;;1.29;100.00;97609.25;5011841;28;20204;-70
2020/12/25 01:23:23;;;;;;;4.67;4.37;;;;;;;1.32;100.00;97608.22;5011040;28;20227;-71
2020/12/25 01:25:50;;;;;;;3.97;3.70;;;;;;;1.27;100.00;97617.22;5013861;28;20204;-69
2020/12/25 01:28:18;;;;;;;3.83;3.53;;;;;;;1.30;100.00;97614.38;5011175;28;20243;-71
2020/12/25 01:30:46;;;;;;;4.33;4.03;;;;;;;1.30;100.00;97623.97;5013760;28;20207;-70
2020/12/25 01:33:13;;;;;;;4.47;4.17;;;;;;;1.19;100.00;97624.81;5011731;28;20227;-70
2020/12/25 01:35:40;;;;;;;4.27;3.93;;;;;;;1.23;100.00;97631.47;5011936;28;20852;-69
2020/12/25 01:38:07;;;;;;;4.73;4.43;;;;;;;1.18;100.00;97625.75;5014980;28;21009;-69
2020/12/25 01:40:34;;;;;;;4.40;4.10;;;;;;;1.13;100.00;97630.44;5010428;28;20452;-71
2020/12/25 01:43:02;;;;;;;5.63;5.10;;;;;;;1.11;100.00;97630.59;5016150;28;20804;-70
2020/12/25 01:45:29;;;;;;;4.60;4.30;;;;;;;0.95;100.00;97641.31;5014448;28;20443;-70
2020/12/25 01:47:57;;;;;;;4.80;4.50;;;;;;;0.91;100.00;97642.47;5014913;28;20232;-70
2020/12/25 01:50:24;;;;;;;4.50;4.20;;;;;;;0.99;100.00;97644.53;5016471;28;20451;-68
2020/12/25 01:52:53;;;;;;;4.50;4.20;;;;;;;0.81;100.00;97647.53;5014267;28;21152;-69
2020/12/25 01:55:23;;;;;;;4.47;4.10;;;;;;;0.72;100.00;97649.00;5013673;28;20444;-69
2020/12/25 01:57:50;;;;;;;5.40;4.90;;;;;;;0.74;100.00;97654.13;5017697;28;20463;-70
2020/12/25 02:00:17;;;;;;;4.33;3.93;;;;;;;0.77;100.00;97659.13;5010287;28;20447;-69
2020/12/25 02:02:46;;;;;;;5.67;5.17;;;;;;;0.71;100.00;97672.63;5011259;28;20483;-69
2020/12/25 02:05:14;;;;;;;5.43;4.93;;;;;;;0.70;100.00;97670.94;5007725;28;20951;-69
2020/12/25 02:07:41;;;;;;;5.37;4.97;;;;;;;0.68;100.00;97672.84;5011948;28;20464;-70
2020/12/25 02:10:08;;;;;;;5.37;4.97;;;;;;;0.55;100.00;97678.91;5011135;28;20510;-69
2020/12/25 02:12:35;;;;;;;6.13;5.63;;;;;;;0.63;100.00;97675.75;5017359;28;20220;-71
2020/12/25 02:15:02;;;;;;;6.50;5.90;;;;;;;0.61;100.00;97676.84;5011278;28;21014;-68
2020/12/25 02:17:29;;;;;;;5.80;5.20;;;;;;;0.58;100.00;97688.31;5013838;28;20227;-69
2020/12/25 02:19:56;;;;;;;5.17;4.77;;;;;;;0.52;100.00;97688.75;5014880;28;20801;-70
2020/12/25 02:22:24;;;;;;;5.03;4.70;;;;;;;0.54;100.00;97692.88;5009342;28;20254;-69
2020/12/25 02:24:51;;;;;;;5.57;5.07;;;;;;;0.52;100.00;97692.16;5012486;28;20700;-69
2020/12/25 02:27:18;;;;;;;5.27;4.87;;;;;;;0.52;100.00;97696.56;5010507;28;21066;-70
2020/12/25 02:29:45;;;;;;;4.93;4.53;;;;;;;0.45;100.00;97696.16;5006746;28;20470;-70
2020/12/25 02:32:12;;;;;;;5.53;5.13;;;;;;;0.40;100.00;97699.09;5014401;28;20208;-71
2020/12/25 02:34:39;;;;;;;5.20;4.70;;;;;;;0.33;100.00;97700.44;5011374;28;20465;-69
2020/12/25 02:37:06;;;;;;;5.70;5.20;;;;;;;0.32;100.00;97703.97;5010532;28;20219;-71
2020/12/25 02:39:34;;;;;;;4.80;4.40;;;;;;;0.32;100.00;97703.97;5008954;28;20477;-70
2020/12/25 02:42:02;;;;;;;5.57;5.10;;;;;;;0.26;100.00;97707.03;5007770;28;20228;-71
2020/12/25 02:44:29;;;;;;;5.23;4.67;;;;;;;0.24;100.00;97706.28;5012775;28;20200;-71
2020/12/25 02:46:55;;;;;;;5.13;4.73;;;;;;;0.24;100.00;97714.97;5009343;28;20455;-71
2020/12/25 02:49:22;;;;;;;5.00;4.60;;;;;;;0.18;100.00;97714.53;5006015;28;20482;-71
2020/12/25 02:51:49;;;;;;;6.57;5.03;;;;;;;0.13;100.00;97720.91;5011278;28;20919;-69
2020/12/25 02:54:16;;;;;;;5.83;5.27;;;;;;;0.14;100.00;97732.16;5015506;28;20215;-70
2020/12/25 02:56:44;;;;;;;6.37;5.53;;;;;;;0.17;100.00;97737.16;5001407;28;20215;-71
2020/12/25 02:59:11;;;;;;;6.57;5.90;;;;;;;0.15;100.00;97731.22;5009217;28;20995;-71
2020/12/25 03:01:38;;;;;;;5.73;5.13;;;;;;;0.12;100.00;97744.44;5011806;28;21047;-69
2020/12/25 03:04:05;;;;;;;5.47;5.00;;;;;;;0.04;100.00;97751.97;5009067;28;20456;-70
2020/12/25 03:06:32;;;;;;;5.87;4.73;;;;;;;0.04;100.00;97757.16;5014707;28;20467;-71
2020/12/25 03:08:59;;;;;;;5.47;4.90;;;;;;;0.05;100.00;97753.63;5010658;28;20476;-71
2020/12/25 03:11:26;;;;;;;5.73;5.13;;;;;;;-0.07;100.00;97763.09;5014922;28;20454;-70
2020/12/25 03:13:54;;;;;;;5.43;4.93;;;;;;;-0.11;100.00;97764.25;5012716;28;20447;-70
2020/12/25 03:16:21;;;;;;;5.70;5.20;;;;;;;-0.08;100.00;97767.50;5010723;28;20449;-71
2020/12/25 03:18:48;;;;;;;5.70;5.20;;;;;;;-0.17;100.00;97760.28;5012659;28;20470;-71
2020/12/25 03:21:15;;;;;;;5.70;5.17;;;;;;;-0.27;100.00;97760.06;5016318;28;21085;-72
2020/12/25 03:23:42;;;;;;;6.47;5.90;;;;;;;-0.31;100.00;97766.41;5011374;28;20447;-70
2020/12/25 03:26:09;;;;;;;5.30;4.90;;;;;;;-0.41;100.00;97762.72;5008125;28;20478;-71
2020/12/25 03:28:36;;;;;;;5.33;4.93;;;;;;;-0.44;100.00;97759.38;5014710;28;20455;-70
2020/12/25 03:31:04;;;;;;;5.30;4.90;;;;;;;-0.39;100.00;97758.25;5012860;28;20475;-71
2020/12/25 03:33:31;;;;;;;5.37;4.87;;;;;;;-0.37;100.00;97757.22;5016144;28;20581;-69
2020/12/25 03:35:58;;;;;;;6.07;5.50;;;;;;;-0.19;100.00;97756.94;5005825;28;20464;-72
2020/12/25 03:38:25;;;;;;;5.20;4.80;;;;;;;-0.21;100.00;97757.03;5012196;28;20470;-71
2020/12/25 03:40:53;;;;;;;6.10;5.47;;;;;;;-0.20;100.00;97765.69;5013722;28;20443;-71
2020/12/25 03:43:20;;;;;;;6.00;5.40;;;;;;;-0.17;100.00;97768.09;5005630;28;20536;-71
2020/12/25 03:45:47;;;;;;;7.03;5.43;;;;;;;-0.16;100.00;97775.81;5011411;28;20962;-72
2020/12/25 03:48:15;;;;;;;6.90;5.20;;;;;;;-0.16;100.00;97783.63;5012153;28;20472;-70
2020/12/25 03:50:42;;;;;;;5.73;5.23;;;;;;;-0.08;100.00;97796.16;5006833;28;20235;-70
2020/12/25 03:53:09;;;;;;;6.33;5.73;;;;;;;-0.14;100.00;97793.94;5008546;28;20216;-71
2020/12/25 03:55:36;;;;;;;8.00;7.17;;;;;;;-0.24;100.00;97791.13;5004912;28;20458;-70
2020/12/25 03:58:03;;;;;;;6.00;5.50;;;;;;;-0.31;100.00;97798.47;5008935;28;20932;-71
2020/12/25 04:00:30;;;;;;;6.03;5.43;;;;;;;-0.26;100.00;97800.78;5014300;28;20462;-71
2020/12/25 04:02:57;;;;;;;5.63;5.17;;;;;;;-0.26;100.00;97799.94;5006869;28;20492;-69
2020/12/25 04:05:25;;;;;;;5.77;5.27;;;;;;;-0.30;100.00;97804.53;5008716;28;20557;-72
2020/12/25 04:07:52;;;;;;;6.00;5.40;;;;;;;-0.25;100.00;97796.41;5013883;28;20471;-72
2020/12/25 04:10:19;;;;;;;7.77;6.40;;;;;;;-0.33;100.00;97799.53;5008877;28;20819;-70
2020/12/25 04:12:46;;;;;;;8.37;7.57;;;;;;;-0.32;100.00;97804.63;5008260;28;20467;-70
2020/12/25 04:15:13;;;;;;;5.30;4.90;;;;;;;-0.37;100.00;97811.09;5011681;28;20454;-71
2020/12/25 04:17:40;;;;;;;6.00;5.50;;;;;;;-0.43;100.00;97804.50;5006844;28;20458;-69
2020/12/25 04:20:07;;;;;;;9.90;8.07;;;;;;;-0.33;100.00;97807.34;5015581;28;20467;-70
2020/12/25 04:22:35;;;;;;;5.50;5.00;;;;;;;-0.26;100.00;97807.75;5013840;28;20508;-69
2020/12/25 04:25:02;;;;;;;6.30;5.70;;;;;;;-0.18;100.00;97813.31;5015313;28;20867;-69
2020/12/25 04:27:29;;;;;;;6.17;5.40;;;;;;;-0.24;100.00;97808.50;5009841;28;20808;-71
2020/12/25 04:29:56;;;;;;;6.17;5.67;;;;;;;-0.20;100.00;97820.38;5020393;28;20472;-69
2020/12/25 04:32:23;;;;;;;7.67;6.90;;;;;;;-0.20;100.00;97812.56;5014451;28;20440;-71
2020/12/25 04:34:50;;;;;;;6.30;5.70;;;;;;;-0.14;100.00;97820.00;5013473;28;20466;-71
2020/12/25 04:37:18;;;;;;;7.50;6.80;;;;;;;-0.15;100.00;97819.16;5015348;28;20543;-70
2020/12/25 04:39:46;;;;;;;7.40;6.60;;;;;;;-0.16;100.00;97819.28;5017443;28;20874;-69
2020/12/25 04:42:13;;;;;;;7.57;6.87;;;;;;;-0.07;100.00;97818.66;5018120;28;21029;-71
2020/12/25 04:44:40;;;;;;;6.10;5.60;;;;;;;-0.10;100.00;97828.44;5012250;28;20481;-71
2020/12/25 04:47:08;;;;;;;6.57;5.97;;;;;;;-0.14;100.00;97825.22;5016637;28;20528;-71
2020/12/25 04:49:36;;;;;;;7.47;6.63;;;;;;;-0.14;100.00;97833.03;5016371;28;20466;-70
2020/12/25 04:52:04;;;;;;;7.13;6.20;;;;;;;-0.05;100.00;97840.22;5012812;28;20442;-72
2020/12/25 04:54:32;;;;;;;6.40;5.90;;;;;;;-0.10;100.00;97839.69;5017527;28;20451;-71
2020/12/25 04:57:00;;;;;;;8.23;6.57;;;;;;;-0.08;100.00;97840.44;5007822;28;20479;-72
2020/12/25 04:59:27;;;;;;;6.83;6.27;;;;;;;0.01;100.00;97836.41;5014624;28;20470;-70
2020/12/25 05:01:55;;;;;;;6.43;5.93;;;;;;;0.03;100.00;97844.09;5012986;28;20487;-71
2020/12/25 05:04:24;;;;;;;7.73;6.77;;;;;;;0.05;100.00;97847.44;5009484;28;20442;-71
2020/12/25 05:06:52;;;;;;;7.10;6.47;;;;;;;0.03;100.00;97850.16;5010166;28;20959;-71
2020/12/25 05:09:22;;;;;;;7.60;6.87;;;;;;;0.09;100.00;97854.09;5017891;28;20941;-72
2020/12/25 05:11:52;;;;;;;7.80;6.50;;;;;;;0.05;100.00;97858.72;5010942;28;20442;-71
2020/12/25 05:14:24;;;;;;;6.37;5.87;;;;;;;0.17;100.00;97862.25;5011951;28;20440;-71
2020/12/25 05:16:54;;;;;;;7.70;6.10;;;;;;;0.13;100.00;97871.22;5013941;28;20213;-71
2020/12/25 05:19:24;;;;;;;6.57;5.97;;;;;;;0.16;100.00;97859.75;5012073;28;20487;-70
2020/12/25 05:21:52;;;;;;;7.57;6.77;;;;;;;0.09;100.00;97864.53;5019327;28;20491;-72
2020/12/25 05:24:19;;;;;;;8.73;7.77;;;;;;;0.11;100.00;97863.50;5013093;28;20682;-71
2020/12/25 05:26:52;;;;;;;8.13;6.60;;;;;;;0.24;100.00;97863.53;5014517;28;20453;-71
2020/12/25 05:29:21;;;;;;;7.57;6.93;;;;;;;0.24;100.00;97857.47;5016607;28;20467;-72
2020/12/25 05:31:49;;;;;;;8.10;7.40;;;;;;;0.27;100.00;97862.47;5012551;28;20200;-71
2020/12/25 05:34:17;;;;;;;6.63;6.03;;;;;;;0.19;100.00;97870.81;5011745;28;20454;-71
2020/12/25 05:36:49;;;;;;;7.63;6.93;;;;;;;0.28;100.00;97879.78;5013213;28;20211;-72
2020/12/25 05:39:26;;;;;;;7.73;6.90;;;;;;;0.18;100.00;97874.34;5008485;28;20794;-71
2020/12/25 05:41:57;;;;;;;7.23;6.63;;;;;;;0.23;100.00;97887.94;5008387;28;21003;-71
2020/12/25 05:44:27;;;;;;;9.87;7.13;;;;;;;0.18;100.00;97889.16;5011540;28;20653;-70
2020/12/25 05:46:58;;;;;;;7.93;7.30;;;;;;;0.20;100.00;97889.88;5010793;28;20452;-69
2020/12/25 05:49:26;;;;;;;7.60;6.90;;;;;;;0.33;100.00;97892.53;5003343;28;20251;-71
2020/12/25 05:51:54;;;;;;;6.97;6.43;;;;;;;0.21;100.00;97886.34;5007657;28;20992;-72
2020/12/25 05:54:22;;;;;;;7.37;6.37;;;;;;;0.28;100.00;97888.47;5009199;28;20471;-74
2020/12/25 05:56:52;;;;;;;6.40;5.80;;;;;;;0.27;100.00;97894.59;5005218;28;20209;-72
2020/12/25 05:59:23;;;;;;;7.40;6.70;;;;;;;0.35;100.00;97893.25;5004989;28;20482;-69
2020/12/25 06:01:53;;;;;;;9.07;6.93;;;;;;;0.31;100.00;97895.22;5008764;28;21047;-70
2020/12/25 06:04:22;;;;;;;7.50;6.90;;;;;;;0.36;100.00;97900.16;4998928;28;20952;-70
2020/12/25 06:06:49;;;;;;;6.93;6.43;;;;;;;0.31;100.00;97904.84;4995560;28;20489;-70
2020/12/25 06:09:17;;;;;;;7.33;6.27;;;;;;;0.49;100.00;97906.19;5001480;28;20923;-69
2020/12/25 06:11:49;;;;;;;7.50;6.67;;;;;;;0.43;100.00;97915.28;5000486;28;20604;-70
2020/12/25 06:14:16;;;;;;;6.50;6.00;;;;;;;0.44;100.00;97913.50;4999574;28;20530;-70
2020/12/25 06:16:55;;;;;;;6.63;6.03;;;;;;;0.55;100.00;97916.22;5002057;28;20212;-72
2020/12/25 06:19:34;;;;;;;6.57;5.97;;;;;;;0.67;100.00;97921.56;5004206;28;20466;-71
2020/12/25 06:22:02;;;;;;;6.43;5.93;;;;;;;0.68;100.00;97918.03;5008983;28;20212;-72
2020/12/25 06:24:33;;;;;;;6.30;5.67;;;;;;;0.49;100.00;97936.66;5006104;28;20740;-72
2020/12/25 06:27:01;;;;;;;6.27;5.77;;;;;;;0.59;100.00;97940.34;5002219;28;20456;-73
2020/12/25 06:29:28;;;;;;;6.50;5.90;;;;;;;0.52;100.00;97941.69;5012047;28;20947;-73
2020/12/25 06:31:57;;;;;;;6.20;5.57;;;;;;;0.47;100.00;97947.19;5009790;28;20305;-73
2020/12/25 06:34:39;;;;;;;6.67;6.00;;;;;;;0.56;100.00;97945.75;4999718;28;20463;-72
2020/12/25 06:37:08;;;;;;;6.70;5.70;;;;;;;0.47;100.00;97948.97;5011012;28;20201;-73
2020/12/25 06:39:35;;;;;;;6.37;5.77;;;;;;;0.59;100.00;97957.75;5001093;28;20225;-73
2020/12/25 06:42:02;;;;;;;7.13;6.43;;;;;;;0.52;100.00;97955.53;5002407;28;20937;-73
2020/12/25 06:44:29;;;;;;;7.10;6.27;;;;;;;0.47;100.00;97960.22;4999684;28;20455;-72
2020/12/25 06:47:03;;;;;;;6.93;6.33;;;;;;;0.41;100.00;97966.69;5007489;28;20205;-72
2020/12/25 06:49:34;;;;;;;7.03;6.33;;;;;;;0.54;100.00;97966.69;5001941;28;20233;-73
2020/12/25 06:52:01;;;;;;;7.03;6.47;;;;;;;0.58;100.00;97969.97;4999808;28;20216;-72
2020/12/25 06:54:30;;;;;;;6.93;6.23;;;;;;;0.50;100.00;97969.63;5000604;28;20615;-73
2020/12/25 06:56:57;;;;;;;7.20;6.50;;;;;;;0.45;100.00;97974.31;5000652;28;20692;-73
2020/12/25 06:59:24;;;;;;;7.03;6.43;;;;;;;0.54;100.00;97984.97;5000913;28;20495;-70
2020/12/25 07:01:52;;;;;;;6.80;6.20;;;;;;;0.55;100.00;97976.19;5000938;28;20210;-73
2020/12/25 07:04:27;;;;;;;7.53;6.70;;;;;;;0.51;100.00;97984.34;5005034;28;20451;-73
2020/12/25 07:06:56;;;;;;;7.60;6.90;;;;;;;0.48;100.00;97982.75;5000128;28;20448;-72
2020/12/25 07:09:34;;;;;;;7.13;6.13;;;;;;;0.47;100.00;97995.91;4957564;28;20476;-71
2020/12/25 07:12:05;;;;;;;7.90;7.03;;;;;;;0.59;100.00;97992.50;5001965;28;20551;-71
2020/12/25 07:14:33;;;;;;;7.73;6.93;;;;;;;0.50;100.00;97998.31;4994871;28;20208;-72
2020/12/25 07:17:00;;;;;;;7.97;6.83;;;;;;;0.54;100.00;98000.59;5005086;28;20292;-73
2020/12/25 07:19:28;;;;;;;8.20;7.20;;;;;;;0.52;100.00;98007.69;4995501;28;20397;-70
2020/12/25 07:21:55;;;;;;;8.43;7.23;;;;;;;0.60;100.00;98001.16;5000346;28;20200;-69
2020/12/25 07:24:22;;;;;;;8.13;7.43;;;;;;;0.69;100.00;98006.59;4999835;28;20463;-73
2020/12/25 07:26:49;;;;;;;8.23;7.33;;;;;;;0.61;100.00;98016.69;5000681;28;20466;-72
2020/12/25 07:29:16;;;;;;;8.23;7.33;;;;;;;0.51;100.00;98013.84;5002100;28;20621;-72
2020/12/25 07:31:51;;;;;;;9.50;8.60;;;;;;;0.58;100.00;98022.13;5002326;28;20454;-72
2020/12/25 07:34:19;;;;;;;7.37;6.73;;;;;;;0.47;100.00;98019.38;4998869;28;20534;-71
2020/12/25 07:36:48;;;;;;;7.87;7.13;;;;;;;0.61;100.00;98021.91;4999211;28;20339;-73
2020/12/25 07:39:15;;;;;;;8.50;7.70;;;;;;;0.73;100.00;98022.88;5003908;28;20464;-73
2020/12/25 07:41:43;;;;;;;8.50;7.77;;;;;;;0.64;100.00;98029.53;5001379;28;20701;-69
2020/12/25 07:44:10;;;;;;;13.77;12.47;;;;;;;0.59;100.00;98038.63;4995517;28;20536;-71
2020/12/25 07:46:37;;;;;;;9.33;8.53;;;;;;;0.72;100.00;98039.47;5003311;28;20451;-69
2020/12/25 07:49:06;;;;;;;10.47;8.30;;;;;;;0.66;100.00;98045.91;4999472;28;20984;-71
2020/12/25 07:51:33;;;;;;;8.67;7.83;;;;;;;0.68;100.00;98048.44;5001730;28;20447;-70
2020/12/25 07:54:03;;;;;;;9.33;8.43;;;;;;;0.72;100.00;98048.13;5001959;28;20774;-70
2020/12/25 07:56:31;;;;;;;8.40;7.60;;;;;;;0.66;100.00;98055.53;5000729;28;20448;-71
2020/12/25 07:58:59;;;;;;;12.33;9.10;;;;;;;0.64;100.00;98062.63;4999391;28;20885;-71
2020/12/25 08:01:27;;;;;;;9.30;8.50;;;;;;;0.66;100.00;98071.19;4997575;28;20445;-71
2020/12/25 08:03:56;;;;;;;7.77;7.07;;;;;;;0.71;100.00;98069.09;5003536;28;20492;-73
2020/12/25 08:06:25;;;;;;;8.37;7.43;;;;;;;0.62;100.00;98072.31;5005265;28;20907;-70
2020/12/25 08:08:54;;;;;;;9.90;8.93;;;;;;;0.60;100.00;98080.22;5004873;28;20848;-70
2020/12/25 08:11:22;;;;;;;9.40;8.40;;;;;;;0.62;100.00;98080.97;5017428;28;20208;-71
2020/12/25 08:13:50;;;;;;;10.77;8.37;;;;;;;0.68;100.00;98080.56;5004043;28;20208;-70
2020/12/25 08:16:18;;;;;;;10.97;9.77;;;;;;;0.67;100.00;98093.72;5004260;28;20447;-69
2020/12/25 08:18:51;;;;;;;9.07;8.27;;;;;;;0.67;100.00;98091.94;5005683;28;20580;-72
2020/12/25 08:21:18;;;;;;;10.67;9.57;;;;;;;0.62;100.00;98091.41;5006090;28;20215;-70
2020/12/25 08:23:46;;;;;;;10.03;9.03;;;;;;;0.67;100.00;98093.72;5008359;28;20592;-71
2020/12/25 08:26:14;;;;;;;9.37;8.47;;;;;;;0.76;100.00;98100.94;5004274;28;20711;-70
2020/12/25 08:28:43;;;;;;;14.87;12.33;;;;;;;0.72;100.00;98096.88;5003821;28;20255;-69
2020/12/25 08:31:14;;;;;;;15.77;14.00;;;;;;;0.78;100.00;98108.69;5011048;28;20196;-70
2020/12/25 08:33:41;;;;;;;9.73;8.83;;;;;;;0.89;100.00;98103.59;5005635;28;20219;-69
2020/12/25 08:36:10;;;;;;;11.83;10.20;;;;;;;0.76;100.00;98111.38;5008193;28;20201;-71
2020/12/25 08:38:41;;;;;;;10.33;9.33;;;;;;;0.92;100.00;98111.22;5002898;28;20224;-70
2020/12/25 08:41:08;;;;;;;43.37;38.80;;;;;;;0.88;100.00;98116.72;5009252;28;20200;-69
2020/12/25 08:43:35;;;;;;;54.23;48.90;;;;;;;0.98;100.00;98120.44;5004562;28;20231;-70
2020/12/25 08:46:03;;;;;;;12.40;11.20;;;;;;;0.96;100.00;98122.31;5003759;28;20209;-69
2020/12/25 08:48:31;;;;;;;10.37;9.40;;;;;;;0.92;100.00;98124.28;5006353;28;20763;-70
2020/12/25 08:51:07;;;;;;;9.57;8.60;;;;;;;0.92;100.00;98120.81;5003587;28;20203;-71
2020/12/25 08:53:34;;;;;;;17.03;13.73;;;;;;;0.99;100.00;98128.16;5010218;28;20204;-70
2020/12/25 08:56:14;;;;;;;10.73;8.20;;;;;;;0.93;100.00;98131.16;5003559;28;20205;-70
2020/12/25 08:58:41;;;;;;;8.87;8.00;;;;;;;1.06;100.00;98133.81;5005293;28;20229;-68
2020/12/25 09:01:09;;;;;;;10.40;9.37;;;;;;;1.13;100.00;98137.69;5009782;28;20522;-69
2020/12/25 09:03:37;;;;;;;9.67;8.77;;;;;;;1.05;100.00;98136.50;5005089;28;20813;-69
2020/12/25 09:06:04;;;;;;;11.87;10.20;;;;;;;1.07;100.00;98148.53;5004533;28;20469;-70
2020/12/25 09:08:31;;;;;;;9.33;8.43;;;;;;;1.02;100.00;98150.63;5006861;28;20689;-68
2020/12/25 09:10:58;;;;;;;10.33;9.43;;;;;;;1.00;100.00;98153.31;5006695;28;20444;-69
2020/12/25 09:13:26;;;;;;;9.17;8.07;;;;;;;1.04;100.00;98147.88;4998242;28;20495;-68
2020/12/25 09:15:53;;;;;;;9.53;8.60;;;;;;;0.99;100.00;98150.81;4993480;28;20551;-68
2020/12/25 09:18:21;;;;;;;8.90;8.00;;;;;;;0.99;100.00;98158.66;5007582;28;20258;-69
2020/12/25 09:20:48;;;;;;;10.47;9.47;;;;;;;1.13;100.00;98163.78;5003429;28;20893;-68
2020/12/25 09:23:15;;;;;;;9.23;8.43;;;;;;;1.13;100.00;98158.56;5013160;28;20494;-70
2020/12/25 09:25:43;;;;;;;8.20;7.50;;;;;;;1.08;100.00;98159.81;5002245;28;20593;-68
2020/12/25 09:28:10;;;;;;;8.60;7.73;;;;;;;1.05;100.00;98167.84;5000644;28;20232;-68
2020/12/25 09:30:37;;;;;;;8.37;7.57;;;;;;;1.05;100.00;98170.44;5001663;28;20444;-69
2020/12/25 09:33:05;;;;;;;12.50;11.23;;;;;;;1.05;100.00;98165.22;5001336;28;20287;-69
2020/12/25 09:35:33;;;;;;;14.80;13.33;;;;;;;1.21;100.00;98175.50;5003528;28;20204;-68
2020/12/25 09:38:00;;;;;;;22.20;17.40;;;;;;;1.19;100.00;98177.38;5003123;28;20228;-69
2020/12/25 09:40:28;;;;;;;18.27;16.23;;;;;;;1.12;100.00;98180.41;5013571;28;20477;-69
2020/12/25 09:42:55;;;;;;;18.47;14.47;;;;;;;1.32;100.00;98185.25;5007233;28;20227;-71
2020/12/25 09:45:22;;;;;;;12.70;10.10;;;;;;;1.68;100.00;98187.19;5002552;28;20230;-70
2020/12/25 09:47:49;;;;;;;11.30;7.90;;;;;;;1.40;100.00;98191.66;5005886;28;20200;-70
2020/12/25 09:50:16;;;;;;;9.00;8.20;;;;;;;1.35;100.00;98187.66;5005359;28;20219;-73
2020/12/25 09:52:44;;;;;;;7.80;6.80;;;;;;;1.33;100.00;98189.53;5003614;28;20224;-71
2020/12/25 09:55:11;;;;;;;8.37;7.47;;;;;;;1.17;100.00;98182.72;5003626;28;20218;-70
2020/12/25 09:57:38;;;;;;;7.57;6.93;;;;;;;1.16;100.00;98188.88;5001022;28;20614;-70
2020/12/25 10:00:09;;;;;;;7.97;7.17;;;;;;;1.19;100.00;98187.81;5004273;28;20632;-69
2020/12/25 10:02:36;;;;;;;8.30;7.60;;;;;;;1.15;100.00;98184.59;5006337;28;20244;-71
2020/12/25 10:05:04;;;;;;;8.53;7.57;;;;;;;1.23;100.00;98191.91;5006746;28;20690;-70
2020/12/25 10:07:31;;;;;;;7.27;6.67;;;;;;;1.21;100.00;98193.78;5003595;28;20397;-71
2020/12/25 10:10:06;;;;;;;10.13;9.13;;;;;;;1.25;100.00;98188.28;5002945;28;20268;-69
2020/12/25 10:12:33;;;;;;;65.30;19.30;;;;;;;1.43;100.00;98191.44;5000929;28;20205;-71
2020/12/25 10:15:00;;;;;;;8.20;7.50;;;;;;;1.33;100.00;98190.38;5004073;28;20296;-72
2020/12/25 10:17:27;;;;;;;7.27;6.60;;;;;;;1.18;100.00;98191.38;5000483;28;20197;-69
2020/12/25 10:19:54;;;;;;;8.10;7.30;;;;;;;1.30;100.00;98193.16;5002666;28;20229;-71
2020/12/25 10:22:22;;;;;;;9.20;8.40;;;;;;;1.30;100.00;98185.34;4999780;28;20217;-71
2020/12/25 10:24:49;;;;;;;8.77;7.87;;;;;;;1.38;100.00;98192.69;5000767;28;20685;-70
2020/12/25 10:27:17;;;;;;;7.03;6.47;;;;;;;1.32;100.00;98198.31;5000120;28;20317;-70
2020/12/25 10:29:44;;;;;;;6.40;5.80;;;;;;;1.34;100.00;98205.13;4999748;28;20228;-70
2020/12/25 10:32:11;;;;;;;5.80;5.30;;;;;;;1.20;100.00;98198.19;5001116;28;20451;-70
2020/12/25 10:34:38;;;;;;;14.17;11.03;;;;;;;1.21;100.00;98194.63;5009735;28;20224;-70
2020/12/25 10:37:10;;;;;;;9.50;8.53;;;;;;;1.23;100.00;98203.19;5002958;28;20193;-70
2020/12/25 10:39:37;;;;;;;6.87;6.33;;;;;;;1.17;100.00;98195.78;5001074;28;20221;-70
2020/12/25 10:42:08;;;;;;;5.17;4.77;;;;;;;1.22;100.00;98203.28;4999723;28;20666;-71
2020/12/25 10:44:36;;;;;;;6.20;5.70;;;;;;;1.25;100.00;98203.94;5001660;28;20225;-69
2020/12/25 10:47:04;;;;;;;12.97;11.83;;;;;;;1.41;100.00;98206.38;4999916;28;20209;-71
2020/12/25 10:49:31;;;;;;;8.73;7.97;;;;;;;1.36;100.00;98205.00;5004329;28;20247;-71
2020/12/25 10:51:58;;;;;;;13.87;12.77;;;;;;;1.44;100.00;98198.34;5005413;28;20698;-72
2020/12/25 10:54:25;;;;;;;17.10;15.40;;;;;;;1.53;100.00;98201.28;4997004;28;20224;-73
2020/12/25 10:56:52;;;;;;;11.00;10.07;;;;;;;1.54;100.00;98198.59;5003629;28;20747;-72
2020/12/25 10:59:23;;;;;;;8.13;7.43;;;;;;;1.56;100.00;98201.06;5003479;28;20239;-69
2020/12/25 11:01:51;;;;;;;17.50;15.50;;;;;;;1.52;100.00;98207.44;5005307;28;20300;-71
2020/12/25 11:04:18;;;;;;;13.37;11.87;;;;;;;1.28;100.00;98206.34;5003148;28;20700;-73
2020/12/25 11:06:45;;;;;;;26.90;24.10;;;;;;;1.33;100.00;98200.84;5002557;28;20205;-71
2020/12/25 11:09:12;;;;;;;13.13;11.83;;;;;;;1.33;100.00;98197.38;5001308;28;20228;-73
2020/12/25 11:11:40;;;;;;;6.37;5.83;;;;;;;1.25;100.00;98206.56;5004312;28;20197;-70
2020/12/25 11:14:08;;;;;;;15.80;14.40;;;;;;;1.18;100.00;98204.44;5002873;28;20210;-72
2020/12/25 11:16:36;;;;;;;13.00;11.90;;;;;;;1.28;100.00;98202.88;5001134;28;20420;-70
2020/12/25 11:19:07;;;;;;;8.37;7.67;;;;;;;1.30;100.00;98209.69;4998619;28;20697;-72
2020/12/25 11:21:35;;;;;;;6.90;6.20;;;;;;;1.24;100.00;98206.63;4999696;28;20967;-73
2020/12/25 11:24:04;;;;;;;20.00;17.90;;;;;;;1.17;100.00;98214.06;5004825;28;20312;-72
2020/12/25 11:26:32;;;;;;;5.83;5.33;;;;;;;0.94;100.00;98212.88;4999618;28;20212;-72
2020/12/25 11:29:00;;;;;;;12.00;10.93;;;;;;;1.00;100.00;98212.53;5001322;28;20592;-73
2020/12/25 11:31:28;;;;;;;6.87;6.30;;;;;;;1.01;100.00;98214.19;5002718;28;20261;-71
2020/12/25 11:33:55;;;;;;;11.07;10.20;;;;;;;1.13;100.00;98217.75;4997533;28;20547;-72